Time;durP1;ratioP1;P1;durP2;ratioP2;P2;SDS_P1;SDS_P2;PMS_P1;PMS_P2;Temp;Humidity;BMP_temperature;BMP_pressure;BME280_temperature;BME280_humidity;BME280_pressure;Samples;Min_cycle;Max_cycle;Signal;HPM_P1;HPM_P2
2023/10/06 00:02:30;;;;;;;4.53;3.88;;;;;;;10.28;80.79;96859.44;6294202;28;20067;-67
2023/10/06 00:05:36;;;;;;;5.60;4.63;;;;;;;10.20;81.38;96856.41;6294277;28;20052;-67
2023/10/06 00:08:40;;;;;;;4.38;3.97;;;;;;;10.24;81.20;96847.38;6292651;28;20071;-66
2023/10/06 00:11:44;;;;;;;6.40;4.05;;;;;;;10.23;81.44;96845.69;6293671;28;20055;-67
2023/10/06 00:14:51;;;;;;;6.13;3.92;;;;;;;10.19;81.48;96838.94;6292774;28;20048;-67
2023/10/06 00:18:00;;;;;;;4.85;3.95;;;;;;;10.26;81.40;96845.50;6294669;28;20131;-67
2023/10/06 00:21:15;;;;;;;5.57;4.35;;;;;;;10.28;81.37;96846.28;6294596;28;20041;-67
2023/10/06 00:24:23;;;;;;;4.55;4.13;;;;;;;10.28;81.23;96843.66;6294367;28;20185;-67
2023/10/06 00:27:29;;;;;;;4.68;4.07;;;;;;;10.28;81.37;96842.81;6294061;28;20071;-67
2023/10/06 00:30:35;;;;;;;6.28;4.53;;;;;;;10.30;81.09;96836.50;6294355;28;20044;-67
2023/10/06 00:33:42;;;;;;;5.32;4.43;;;;;;;10.25;81.47;96841.19;6293788;28;20051;-67
2023/10/06 00:36:52;;;;;;;7.13;4.47;;;;;;;10.30;81.38;96835.63;6293970;28;20047;-66
2023/10/06 00:39:57;;;;;;;5.32;4.55;;;;;;;10.30;81.42;96831.25;6293913;28;20076;-67
2023/10/06 00:43:00;;;;;;;5.35;3.97;;;;;;;10.25;81.64;96828.03;6293929;28;20527;-67
2023/10/06 00:46:08;;;;;;;6.03;3.97;;;;;;;10.18;82.06;96834.63;6293583;28;20534;-67
2023/10/06 00:49:14;;;;;;;4.85;3.70;;;;;;;10.21;82.11;96836.22;6293981;28;20048;-67
2023/10/06 00:52:18;;;;;;;;;;;;;;;10.23;81.60;96835.16;6283747;28;20080;-66
2023/10/06 00:55:20;;;;;;;5.40;4.17;;;;;;;10.13;82.23;96828.81;6293120;28;19927;-67
2023/10/06 00:58:22;;;;;;;5.00;4.40;;;;;;;10.05;82.50;96826.69;6293207;28;20179;-66
2023/10/06 01:01:23;;;;;;;6.40;4.15;;;;;;;10.05;82.89;96826.69;6275410;28;20053;-67
2023/10/06 01:04:25;;;;;;;6.28;3.85;;;;;;;10.07;83.09;96823.94;6293335;28;20052;-66
2023/10/06 01:07:29;;;;;;;5.50;4.25;;;;;;;10.05;83.05;96818.78;6292960;28;20048;-66
2023/10/06 01:10:34;;;;;;;5.38;4.07;;;;;;;10.15;82.69;96826.94;6292962;28;20055;-66
2023/10/06 01:13:35;;;;;;;5.75;4.13;;;;;;;10.10;82.93;96814.06;6292986;28;20052;-67
2023/10/06 01:16:38;;;;;;;6.15;3.97;;;;;;;10.13;82.49;96818.28;6293034;28;20053;-67
2023/10/06 01:19:48;;;;;;;6.18;4.68;;;;;;;10.17;82.39;96817.16;6293583;28;20045;-66
2023/10/06 01:22:55;;;;;;;7.93;5.13;;;;;;;10.13;82.53;96813.03;6293921;28;20047;-67
2023/10/06 01:26:00;;;;;;;4.95;4.05;;;;;;;10.15;82.36;96811.16;6280996;28;20507;-66
2023/10/06 01:29:02;;;;;;;6.15;4.28;;;;;;;10.08;82.33;96815.13;6279746;28;20055;-67
2023/10/06 01:32:05;;;;;;;4.35;3.80;;;;;;;10.08;82.23;96810.72;6297350;28;20079;-67
2023/10/06 01:35:12;;;;;;;5.13;4.23;;;;;;;10.16;82.19;96812.81;6279576;28;20059;-66
2023/10/06 01:38:22;;;;;;;5.10;3.85;;;;;;;10.11;82.31;96814.94;6297264;28;20053;-68
2023/10/06 01:41:26;;;;;;;6.35;4.10;;;;;;;10.17;82.20;96806.66;6297895;28;20079;-66
2023/10/06 01:44:31;;;;;;;5.53;3.95;;;;;;;10.18;82.17;96808.31;6297740;28;20399;-66
2023/10/06 01:47:35;;;;;;;4.97;4.30;;;;;;;10.15;81.87;96805.06;6297941;28;20041;-66
2023/10/06 01:50:42;;;;;;;7.22;4.07;;;;;;;10.07;82.22;96808.16;6283045;28;20040;-66
2023/10/06 01:53:44;;;;;;;6.75;5.05;;;;;;;10.06;82.38;96807.31;6305067;28;20052;-66
2023/10/06 01:56:46;;;;;;;4.57;3.95;;;;;;;10.10;82.12;96802.72;6322337;28;20036;-67
2023/10/06 01:59:49;;;;;;;4.80;3.80;;;;;;;10.01;82.41;96798.88;6322896;28;20044;-66
2023/10/06 02:02:54;;;;;;;6.05;4.63;;;;;;;10.09;82.33;96801.03;6321421;28;20056;-67
2023/10/06 02:06:00;;;;;;;7.68;4.35;;;;;;;10.05;82.84;96799.56;6322758;28;20048;-67
2023/10/06 02:09:20;;;;;;;5.50;4.20;;;;;;;10.03;82.85;96806.69;6304838;28;20040;-67
2023/10/06 02:12:22;;;;;;;4.78;4.10;;;;;;;10.11;82.63;96800.00;6321494;28;20530;-66
2023/10/06 02:15:24;;;;;;;6.07;4.13;;;;;;;10.04;82.84;96798.69;6322119;28;20117;-66
2023/10/06 02:18:36;;;;;;;;;;;;;;;10.03;82.64;96802.25;6322695;28;20040;-67
2023/10/06 02:21:48;;;;;;;6.38;4.45;;;;;;;10.14;82.51;96793.69;6303962;28;19920;-66
2023/10/06 02:24:55;;;;;;;5.40;3.85;;;;;;;10.18;82.01;96771.50;6305283;28;20063;-66
2023/10/06 02:28:04;;;;;;;5.60;4.45;;;;;;;10.22;81.63;96780.91;6321934;28;20039;-67
2023/10/06 02:31:10;;;;;;;5.95;4.35;;;;;;;10.09;82.10;96765.06;6321928;28;20051;-67
2023/10/06 02:34:35;;;;;;;5.53;4.10;;;;;;;10.10;82.49;96781.69;6320602;28;20048;-67
2023/10/06 02:37:36;;;;;;;5.65;4.60;;;;;;;10.23;81.66;96787.00;6320673;28;20051;-68
2023/10/06 02:40:47;;;;;;;;;;;;;;;10.11;81.28;96783.38;6304240;28;20487;-67
2023/10/06 02:43:52;;;;;;;6.38;4.85;;;;;;;10.09;82.22;96782.63;6321342;28;19927;-68
2023/10/06 02:46:55;;;;;;;9.20;5.13;;;;;;;10.08;82.46;96779.16;6302630;28;20228;-67
2023/10/06 02:49:59;;;;;;;6.47;4.85;;;;;;;10.19;82.33;96783.72;6321161;28;20032;-68
2023/10/06 02:53:07;;;;;;;4.88;4.00;;;;;;;10.16;82.13;96791.78;6320532;28;20059;-67
2023/10/06 02:56:15;;;;;;;8.48;5.40;;;;;;;10.16;82.25;96791.78;6321361;28;20040;-67
2023/10/06 02:59:21;;;;;;;7.20;4.95;;;;;;;10.18;82.25;96779.41;6320444;28;20058;-67
2023/10/06 03:02:26;;;;;;;5.38;4.13;;;;;;;10.15;82.74;96779.59;6320133;28;20063;-67
2023/10/06 03:05:33;;;;;;;4.88;4.43;;;;;;;10.16;82.92;96770.75;6320871;28;20138;-66
2023/10/06 03:08:42;;;;;;;7.30;4.10;;;;;;;10.32;81.94;96781.16;6320885;28;20036;-67
2023/10/06 03:11:49;;;;;;;4.78;4.07;;;;;;;10.17;82.30;96782.13;6320355;28;20533;-68
2023/10/06 03:14:58;;;;;;;6.90;4.45;;;;;;;10.20;82.27;96777.53;6320924;28;20048;-69
2023/10/06 03:18:03;;;;;;;6.65;4.30;;;;;;;10.26;82.28;96773.66;6320749;28;20036;-68
2023/10/06 03:21:14;;;;;;;6.47;4.50;;;;;;;10.32;81.91;96771.47;6319603;28;20040;-68
2023/10/06 03:24:31;;;;;;;6.65;5.07;;;;;;;10.31;81.59;96774.22;6320388;28;20748;-67
2023/10/06 03:27:36;;;;;;;6.25;4.63;;;;;;;10.25;82.00;96774.59;6319853;28;20138;-68
2023/10/06 03:30:41;;;;;;;5.97;4.72;;;;;;;10.21;82.45;96783.63;6319847;28;20048;-66
2023/10/06 03:33:46;;;;;;;7.07;4.55;;;;;;;10.26;82.10;96766.59;6319507;28;20060;-67
2023/10/06 03:36:56;;;;;;;7.93;5.00;;;;;;;10.37;81.88;96779.09;6320101;28;20097;-68
2023/10/06 03:40:13;;;;;;;6.00;4.65;;;;;;;10.36;81.84;96766.03;6301760;28;20502;-68
2023/10/06 03:43:33;;;;;;;7.45;4.80;;;;;;;10.40;81.12;96767.53;6319979;28;20044;-67
2023/10/06 03:46:38;;;;;;;4.82;4.18;;;;;;;10.32;81.63;96763.59;6300678;28;20422;-67
2023/10/06 03:49:44;;;;;;;7.10;4.00;;;;;;;10.42;81.62;96770.91;6302020;28;20040;-67
2023/10/06 03:52:47;;;;;;;5.43;4.15;;;;;;;10.48;81.20;96770.50;6318538;28;20422;-67
2023/10/06 03:55:48;;;;;;;7.03;4.57;;;;;;;10.60;80.86;96769.66;6300955;28;20052;-67
2023/10/06 03:58:54;;;;;;;5.75;3.95;;;;;;;10.67;80.53;96763.06;6319128;28;20043;-67
2023/10/06 04:01:55;;;;;;;6.43;4.90;;;;;;;10.68;80.15;96762.09;6300939;28;20047;-67
2023/10/06 04:05:05;;;;;;;6.43;4.70;;;;;;;10.72;80.23;96753.06;6319469;28;20044;-66
2023/10/06 04:08:15;;;;;;;6.40;4.20;;;;;;;10.81;79.47;96756.00;6318379;28;20414;-67
2023/10/06 04:11:19;;;;;;;8.30;4.65;;;;;;;10.84;78.92;96748.78;6319439;28;20059;-66
2023/10/06 04:14:23;;;;;;;6.32;5.28;;;;;;;10.84;78.33;96743.50;6319793;28;20036;-67
2023/10/06 04:17:29;;;;;;;7.28;4.63;;;;;;;10.77;78.89;96740.44;6319397;28;20043;-66
2023/10/06 04:20:33;;;;;;;12.63;7.13;;;;;;;10.76;78.67;96744.03;6319280;28;20035;-67
2023/10/06 04:23:41;;;;;;;6.82;4.70;;;;;;;10.82;79.08;96741.91;6319192;28;20048;-66
2023/10/06 04:26:47;;;;;;;6.15;5.22;;;;;;;10.89;78.81;96753.69;6318432;28;20498;-67
2023/10/06 04:29:49;;;;;;;6.85;4.53;;;;;;;10.87;78.82;96745.94;6318716;28;20453;-66
2023/10/06 04:32:50;;;;;;;6.25;4.72;;;;;;;10.98;78.25;96748.66;6318286;28;20105;-66
2023/10/06 04:36:07;;;;;;;8.70;4.60;;;;;;;10.95;78.70;96753.28;6318122;28;20101;-67
2023/10/06 04:39:16;;;;;;;7.22;4.70;;;;;;;11.05;77.58;96748.25;6319071;28;20044;-67
2023/10/06 04:42:18;;;;;;;6.90;5.25;;;;;;;11.09;77.20;96750.53;6318377;28;20456;-67
2023/10/06 04:45:20;;;;;;;7.15;5.70;;;;;;;10.97;77.73;96746.13;6318857;28;20131;-66
2023/10/06 04:48:23;;;;;;;6.15;4.95;;;;;;;10.93;78.32;96749.94;6319249;28;20074;-66
2023/10/06 04:51:27;;;;;;;;;;;;;;;10.99;78.24;96754.78;6291502;28;20052;-66
2023/10/06 04:54:31;;;;;;;9.93;5.90;;;;;;;11.04;78.02;96742.16;6293658;28;20457;-66
2023/10/06 04:57:37;;;;;;;8.32;5.72;;;;;;;11.05;77.84;96738.56;6296437;28;20040;-67
2023/10/06 05:00:40;;;;;;;7.05;5.63;;;;;;;11.08;77.99;96754.13;6298745;28;20127;-67
2023/10/06 05:03:45;;;;;;;7.70;5.63;;;;;;;11.12;77.47;96742.44;6298782;28;20055;-66
2023/10/06 05:06:53;;;;;;;8.23;5.65;;;;;;;11.04;78.20;96744.78;6298886;28;20040;-67
2023/10/06 05:09:55;;;;;;;9.18;5.97;;;;;;;11.12;77.88;96739.78;6298000;28;20048;-66
2023/10/06 05:13:02;;;;;;;10.65;6.32;;;;;;;11.14;77.96;96732.63;6297209;28;20051;-66
2023/10/06 05:16:04;;;;;;;9.75;6.40;;;;;;;11.19;77.95;96727.91;6297745;28;20044;-67
2023/10/06 05:19:11;;;;;;;9.65;6.80;;;;;;;11.28;78.40;96736.13;6298433;28;20368;-67
2023/10/06 05:22:12;;;;;;;8.15;6.38;;;;;;;11.51;78.47;96735.34;6297294;28;20040;-67
2023/10/06 05:25:19;;;;;;;9.25;6.25;;;;;;;11.74;77.64;96744.22;6298121;28;20139;-67
2023/10/06 05:28:22;;;;;;;8.95;6.70;;;;;;;11.80;77.05;96746.41;6298145;28;20041;-67
2023/10/06 05:31:24;;;;;;;8.07;6.15;;;;;;;11.91;76.41;96727.22;6297468;28;20147;-67
2023/10/06 05:34:26;;;;;;;11.23;6.65;;;;;;;11.87;76.22;96709.97;6297365;28;20044;-66
2023/10/06 05:37:27;;;;;;;9.70;6.82;;;;;;;11.98;76.66;96720.56;6296396;28;20419;-67
2023/10/06 05:40:32;;;;;;;;;;;;;;;12.32;74.73;96726.00;6298213;28;20082;-66
2023/10/06 05:43:34;;;;;;;10.50;7.18;;;;;;;12.16;74.56;96720.19;6297530;28;20420;-67
2023/10/06 05:46:44;;;;;;;11.60;8.13;;;;;;;12.06;74.58;96723.50;6297761;28;20048;-67
2023/10/06 05:49:49;;;;;;;8.90;6.75;;;;;;;11.78;74.82;96694.78;6297660;28;20037;-66
2023/10/06 05:52:52;;;;;;;10.25;7.07;;;;;;;11.86;75.03;96709.13;6318723;28;20527;-67
2023/10/06 05:55:53;;;;;;;9.38;7.07;;;;;;;11.87;75.27;96715.25;6321839;28;20368;-66
2023/10/06 05:58:55;;;;;;;9.95;7.38;;;;;;;11.87;75.48;96720.50;6321762;28;20477;-67
2023/10/06 06:02:00;;;;;;;9.93;7.90;;;;;;;11.95;75.50;96714.69;6321842;28;20044;-66
2023/10/06 06:05:03;;;;;;;9.68;7.68;;;;;;;12.05;74.95;96698.06;6322161;28;20131;-66
2023/10/06 06:08:09;;;;;;;12.07;7.72;;;;;;;12.29;74.35;96707.78;6321793;28;20039;-66
2023/10/06 06:11:10;;;;;;;12.90;8.50;;;;;;;12.24;74.25;96707.25;6322176;28;20506;-67
2023/10/06 06:14:12;;;;;;;9.77;7.35;;;;;;;12.29;74.25;96698.06;6322060;28;20036;-66
2023/10/06 06:17:16;;;;;;;11.77;8.48;;;;;;;12.38;73.38;96687.78;6321488;28;20332;-66
2023/10/06 06:20:22;;;;;;;12.07;8.18;;;;;;;12.50;73.64;96694.75;6321323;28;20395;-66
2023/10/06 06:23:24;;;;;;;9.90;7.35;;;;;;;12.52;72.56;96691.03;6320728;28;20047;-66
2023/10/06 06:26:31;;;;;;;9.07;6.43;;;;;;;12.63;72.27;96684.13;6321712;28;20039;-67
2023/10/06 06:29:38;;;;;;;10.40;7.50;;;;;;;12.62;71.83;96682.41;6321778;28;20040;-66
2023/10/06 06:32:42;;;;;;;12.18;7.47;;;;;;;12.62;71.68;96685.06;6320996;28;20055;-67
2023/10/06 06:35:52;;;;;;;10.63;7.78;;;;;;;12.73;71.16;96682.44;6321590;28;20051;-68
2023/10/06 06:38:58;;;;;;;7.53;5.82;;;;;;;12.75;71.04;96676.09;6304016;28;20131;-67
2023/10/06 06:42:05;;;;;;;11.40;7.13;;;;;;;12.70;71.00;96669.47;6321198;28;20044;-66
2023/10/06 06:45:07;;;;;;;9.43;6.47;;;;;;;12.77;70.94;96683.91;6320370;28;20055;-68
2023/10/06 06:48:13;;;;;;;10.98;7.40;;;;;;;12.69;70.96;96673.09;6321578;28;20043;-67
2023/10/06 06:51:20;;;;;;;12.93;8.25;;;;;;;12.71;70.69;96673.78;6320915;28;20051;-67
2023/10/06 06:54:21;;;;;;;10.38;7.10;;;;;;;12.54;71.41;96662.75;6303120;28;20498;-67
2023/10/06 06:57:23;;;;;;;9.95;6.85;;;;;;;12.63;71.51;96663.00;6319744;28;20414;-66
2023/10/06 07:00:27;;;;;;;;;;;;;;;12.99;70.03;96673.38;6321286;28;20495;-66
2023/10/06 07:03:37;;;;;;;11.55;7.72;;;;;;;12.72;70.66;96664.94;6320886;28;19920;-66
2023/10/06 07:06:41;;;;;;;12.25;7.22;;;;;;;12.76;70.99;96661.09;6321145;28;20040;-67
2023/10/06 07:09:44;;;;;;;10.23;7.77;;;;;;;12.70;70.86;96661.56;6320026;28;20070;-67
2023/10/06 07:12:47;;;;;;;10.40;7.60;;;;;;;12.58;70.67;96664.19;6319614;28;20427;-66
2023/10/06 07:15:51;;;;;;;10.98;7.68;;;;;;;12.48;71.08;96650.03;6319606;28;20414;-67
2023/10/06 07:18:53;;;;;;;12.75;7.47;;;;;;;12.34;72.13;96640.50;6302714;28;20050;-68
2023/10/06 07:21:57;;;;;;;11.90;8.10;;;;;;;12.38;73.23;96656.94;6319698;28;20040;-68
2023/10/06 07:24:58;;;;;;;11.02;7.65;;;;;;;12.41;73.58;96646.16;6301706;28;20427;-67
2023/10/06 07:28:00;;;;;;;12.30;8.82;;;;;;;12.64;72.02;96656.75;6319317;28;20138;-67
2023/10/06 07:31:08;;;;;;;12.35;7.78;;;;;;;12.65;71.82;96642.59;6319590;28;20051;-66
2023/10/06 07:34:14;;;;;;;10.50;6.43;;;;;;;12.81;71.52;96637.81;6320585;28;20131;-68
2023/10/06 07:37:15;;;;;;;14.75;8.75;;;;;;;12.70;71.75;96636.00;6319096;28;20055;-66
2023/10/06 07:40:21;;;;;;;12.88;8.77;;;;;;;12.69;72.07;96638.78;6319504;28;20052;-67
2023/10/06 07:43:25;;;;;;;14.45;9.50;;;;;;;12.70;72.33;96636.00;6319251;28;20055;-67
2023/10/06 07:46:29;;;;;;;11.02;8.43;;;;;;;12.65;72.18;96643.44;6319019;28;20044;-67
2023/10/06 07:49:34;;;;;;;10.82;7.72;;;;;;;12.52;73.12;96629.50;6320451;28;20032;-67
2023/10/06 07:52:36;;;;;;;11.60;8.23;;;;;;;12.68;72.34;96627.38;6319050;28;20044;-68
2023/10/06 07:55:40;;;;;;;14.85;8.35;;;;;;;12.75;72.23;96625.94;6301050;28;20173;-67
2023/10/06 07:58:44;;;;;;;12.13;7.93;;;;;;;12.85;71.94;96623.44;6319928;28;20039;-67
2023/10/06 08:01:49;;;;;;;10.15;7.40;;;;;;;12.87;72.72;96621.50;6319326;28;20055;-67
2023/10/06 08:05:19;;;;;;;11.15;7.57;;;;;;;13.06;71.42;96605.06;6318938;28;20055;-67
2023/10/06 08:08:23;;;;;;;11.68;8.10;;;;;;;13.18;71.29;96614.63;6319653;28;20040;-67
2023/10/06 08:11:25;;;;;;;10.00;7.53;;;;;;;13.40;70.35;96605.88;6318178;28;20044;-68
2023/10/06 08:14:30;;;;;;;11.18;7.95;;;;;;;13.69;69.44;96605.31;6319547;28;20514;-68
2023/10/06 08:17:33;;;;;;;15.93;8.07;;;;;;;13.79;69.12;96598.31;6319358;28;20039;-67
2023/10/06 08:20:38;;;;;;;11.82;7.45;;;;;;;13.91;69.25;96597.28;6318939;28;20075;-66
2023/10/06 08:23:41;;;;;;;13.38;8.07;;;;;;;14.07;68.89;96604.81;6319370;28;20047;-67
2023/10/06 08:26:45;;;;;;;;;;;;;;;14.50;66.58;96600.34;6320089;28;20040;-65
2023/10/06 08:29:51;;;;;;;9.88;7.78;;;;;;;14.43;66.06;96604.47;6318401;28;19920;-67
2023/10/06 08:32:55;;;;;;;10.65;8.02;;;;;;;14.38;65.89;96584.53;6318532;28;20044;-68
2023/10/06 08:35:58;;;;;;;14.20;7.70;;;;;;;14.25;67.19;96599.78;6318321;28;20113;-68
2023/10/06 08:39:00;;;;;;;15.03;9.00;;;;;;;14.36;66.56;96589.13;6318770;28;20052;-67
2023/10/06 08:42:06;;;;;;;12.23;8.63;;;;;;;14.33;66.75;96584.09;6317998;28;20064;-67
2023/10/06 08:45:09;;;;;;;15.20;9.10;;;;;;;14.43;66.40;96581.50;6318278;28;20052;-68
2023/10/06 08:48:15;;;;;;;14.88;9.50;;;;;;;14.51;65.51;96594.09;6318892;28;20047;-67
2023/10/06 08:51:22;;;;;;;12.13;8.00;;;;;;;14.44;65.09;96587.66;6317658;28;20056;-67
2023/10/06 08:54:30;;;;;;;11.75;7.57;;;;;;;14.09;66.20;96586.16;6318642;28;20511;-67
2023/10/06 08:57:34;;;;;;;9.73;7.95;;;;;;;14.16;66.03;96582.03;6318809;28;20162;-67
2023/10/06 09:00:40;;;;;;;11.10;7.60;;;;;;;14.37;65.53;96582.84;6317953;28;20082;-67
2023/10/06 09:03:46;;;;;;;11.82;7.13;;;;;;;14.46;65.72;96572.44;6318694;28;20426;-68
2023/10/06 09:07:12;;;;;;;9.00;7.25;;;;;;;15.12;64.37;96562.31;6318899;28;20052;-67
2023/10/06 09:10:20;;;;;;;9.98;7.15;;;;;;;15.78;61.95;96574.19;6301227;28;20044;-67
2023/10/06 09:13:23;;;;;;;10.75;6.68;;;;;;;15.73;61.78;96573.75;6318038;28;20087;-67
2023/10/06 09:16:49;;;;;;;11.13;6.47;;;;;;;15.84;61.73;96568.31;6305409;28;20123;-66
2023/10/06 09:19:51;;;;;;;9.27;6.78;;;;;;;15.71;62.09;96563.31;6292749;28;20051;-67
2023/10/06 09:22:59;;;;;;;10.57;7.13;;;;;;;15.60;61.80;96572.19;6293276;28;20097;-66
2023/10/06 09:26:08;;;;;;;10.18;6.38;;;;;;;15.62;61.93;96570.22;6293412;28;20158;-67
2023/10/06 09:29:12;;;;;;;8.95;6.82;;;;;;;15.72;61.13;96567.63;6292705;28;20519;-67
2023/10/06 09:32:23;;;;;;;;;;;;;;;15.48;61.72;96567.97;6292475;28;20511;-67
2023/10/06 09:35:27;;;;;;;11.00;7.47;;;;;;;15.10;62.74;96558.13;6293066;28;19916;-66
2023/10/06 09:38:32;;;;;;;11.23;7.35;;;;;;;15.13;62.91;96553.38;6292377;28;20051;-67
2023/10/06 09:41:38;;;;;;;9.63;6.88;;;;;;;14.95;63.95;96558.50;6293360;28;20094;-67
2023/10/06 09:44:44;;;;;;;8.80;6.95;;;;;;;15.22;63.32;96547.25;6278075;28;20537;-67
2023/10/06 09:47:56;;;;;;;12.27;6.95;;;;;;;15.61;62.73;96541.19;6297749;28;20037;-67
2023/10/06 09:50:58;;;;;;;10.75;7.10;;;;;;;15.88;60.63;96556.44;6296500;28;20059;-68
2023/10/06 09:54:00;;;;;;;9.60;6.95;;;;;;;15.89;60.25;96540.38;6279252;28;20065;-67
2023/10/06 09:57:03;;;;;;;10.48;6.75;;;;;;;16.32;59.72;96547.03;6297206;28;20044;-67
2023/10/06 10:00:15;;;;;;;11.93;7.05;;;;;;;16.82;58.57;96537.97;6297493;28;20040;-67
2023/10/06 10:03:20;;;;;;;11.35;7.38;;;;;;;17.18;57.45;96538.91;6296578;28;20072;-67
2023/10/06 10:06:25;;;;;;;10.57;6.90;;;;;;;17.22;57.08;96540.28;6296504;28;20515;-67
2023/10/06 10:09:31;;;;;;;8.80;6.40;;;;;;;16.79;57.72;96541.75;6297300;28;20071;-67
2023/10/06 10:12:38;;;;;;;13.82;9.00;;;;;;;16.36;58.73;96531.63;6296439;28;20396;-67
2023/10/06 10:16:04;;;;;;;8.45;6.30;;;;;;;16.15;59.82;96535.31;6296419;28;20055;-67
2023/10/06 10:19:11;;;;;;;10.82;7.25;;;;;;;16.36;59.50;96534.28;6297447;28;20047;-67
2023/10/06 10:22:16;;;;;;;9.23;6.63;;;;;;;16.69;58.59;96526.78;6296068;28;20048;-67
2023/10/06 10:25:19;;;;;;;12.25;6.50;;;;;;;16.41;59.45;96528.56;6295734;28;20128;-66
2023/10/06 10:28:27;;;;;;;12.30;7.47;;;;;;;16.26;59.77;96526.38;6296543;28;20040;-67
2023/10/06 10:31:35;;;;;;;9.82;7.07;;;;;;;16.16;59.43;96529.06;6296558;28;20098;-66
2023/10/06 10:35:12;;;;;;;8.90;6.03;;;;;;;16.33;59.90;96521.31;6296360;28;20056;-67
2023/10/06 10:38:16;;;;;;;9.35;6.43;;;;;;;16.29;59.76;96514.63;6295855;28;20048;-68
2023/10/06 10:41:17;;;;;;;;;;;;;;;16.50;59.44;96517.94;6296044;28;20047;-67
2023/10/06 10:44:21;;;;;;;9.43;6.60;;;;;;;16.66;59.16;96522.59;6296368;28;19920;-66
2023/10/06 10:47:23;;;;;;;10.70;6.82;;;;;;;16.57;58.74;96518.19;6295625;28;20041;-66
2023/10/06 10:51:00;;;;;;;9.95;7.10;;;;;;;16.56;59.00;96517.34;6295182;28;20040;-65
2023/10/06 10:54:05;;;;;;;10.07;6.13;;;;;;;16.21;60.04;96522.47;6292217;28;20534;-66
2023/10/06 10:57:09;;;;;;;;;;;;;;;16.17;60.24;96511.31;6296036;28;20059;-67
2023/10/06 11:00:14;;;;;;;10.15;5.97;;;;;;;16.43;59.31;96500.88;6295845;28;19920;-67
2023/10/06 11:03:22;;;;;;;9.85;6.45;;;;;;;16.64;59.26;96494.50;6296067;28;20044;-68
2023/10/06 11:06:27;;;;;;;10.20;7.07;;;;;;;16.93;58.24;96492.59;6295572;28;20052;-67
2023/10/06 11:12:40;;;;;;;8.45;6.45;;;;;;;16.26;59.92;96491.03;6295738;28;20044;-67
2023/10/06 11:15:44;;;;;;;7.85;6.03;;;;;;;15.87;60.88;96488.44;6294830;28;20135;-67
2023/10/06 11:18:49;;;;;;;11.85;7.15;;;;;;;15.71;61.63;96483.72;6294785;28;20542;-67
2023/10/06 11:21:52;;;;;;;12.15;7.63;;;;;;;15.73;61.81;96491.53;6295696;28;20037;-67
2023/10/06 11:25:02;;;;;;;10.15;5.97;;;;;;;15.64;62.14;96480.75;6294875;28;20053;-67
2023/10/06 11:28:09;;;;;;;10.70;6.75;;;;;;;15.82;61.95;96483.53;6294758;28;20515;-68
2023/10/06 11:31:16;;;;;;;10.00;7.00;;;;;;;15.71;62.15;96489.88;6295315;28;20046;-67
2023/10/06 11:34:17;;;;;;;9.77;6.95;;;;;;;15.46;63.04;96485.09;6295034;28;20113;-68
2023/10/06 11:37:24;;;;;;;;;;;;;;;15.41;63.08;96482.00;6295374;28;20044;-68
2023/10/06 11:40:30;;;;;;;9.60;6.65;;;;;;;15.14;64.19;96475.56;6294611;28;19916;-67
2023/10/06 11:43:31;;;;;;;10.23;7.32;;;;;;;14.97;64.60;96484.19;6294748;28;20068;-68
2023/10/06 11:46:52;;;;;;;10.65;7.38;;;;;;;14.84;64.92;96483.59;6294360;28;20048;-67
2023/10/06 11:49:57;;;;;;;10.57;7.00;;;;;;;14.72;65.09;96478.41;6295053;28;20048;-67
2023/10/06 11:53:01;;;;;;;10.70;6.95;;;;;;;14.73;64.76;96479.25;6294427;28;20511;-66
2023/10/06 11:56:12;;;;;;;11.30;6.82;;;;;;;14.67;64.36;96477.13;6293794;28;20418;-67
2023/10/06 11:59:22;;;;;;;9.85;6.97;;;;;;;14.58;64.68;96465.53;6276241;28;20051;-67
2023/10/06 12:02:24;;;;;;;8.85;6.25;;;;;;;14.65;63.93;96468.47;6293428;28;20052;-67
2023/10/06 12:05:28;;;;;;;10.27;6.25;;;;;;;14.68;63.08;96462.91;6294160;28;20049;-66
2023/10/06 12:08:33;;;;;;;8.88;6.22;;;;;;;14.40;63.91;96465.28;6292702;28;20086;-67
2023/10/06 12:11:34;;;;;;;9.10;6.10;;;;;;;14.36;64.05;96462.06;6293467;28;20045;-67
2023/10/06 12:14:36;;;;;;;9.55;5.32;;;;;;;14.25;63.87;96467.47;6293476;28;20061;-67
2023/10/06 12:17:41;;;;;;;6.47;5.53;;;;;;;14.19;63.99;96464.50;6292868;28;20049;-67
2023/10/06 12:20:42;;;;;;;10.65;6.65;;;;;;;14.10;64.51;96463.50;6275895;28;20040;-67
2023/10/06 12:23:47;;;;;;;6.47;5.28;;;;;;;13.94;65.05;96469.25;6293924;28;20052;-67
2023/10/06 12:26:49;;;;;;;5.80;5.20;;;;;;;13.87;65.23;96462.78;6275191;28;20443;-66
2023/10/06 12:29:55;;;;;;;10.70;6.15;;;;;;;13.88;65.35;96454.72;6293850;28;20101;-67
2023/10/06 12:33:03;;;;;;;8.68;6.20;;;;;;;13.82;65.47;96470.28;6293887;28;20040;-67
2023/10/06 12:36:08;;;;;;;10.32;6.38;;;;;;;13.54;66.47;96461.19;6294161;28;20044;-67
2023/10/06 12:39:16;;;;;;;8.73;6.15;;;;;;;13.57;66.54;96463.56;6293174;28;20052;-66
2023/10/06 12:42:18;;;;;;;8.85;5.45;;;;;;;13.46;67.04;96460.00;6293231;28;20056;-67
2023/10/06 12:45:20;;;;;;;7.90;6.80;;;;;;;13.47;66.83;96461.69;6292917;28;20147;-67
2023/10/06 12:48:24;;;;;;;8.02;6.93;;;;;;;13.40;67.10;96449.94;6293223;28;20044;-67
2023/10/06 12:51:28;;;;;;;;;;;;;;;13.45;67.08;96462.78;6293962;28;20431;-66
2023/10/06 12:54:30;;;;;;;8.75;6.43;;;;;;;13.33;67.50;96453.22;6293722;28;19924;-67
2023/10/06 12:57:36;;;;;;;10.43;7.10;;;;;;;13.15;68.25;96451.09;6288310;28;20044;-68
2023/10/06 13:00:40;;;;;;;8.32;7.15;;;;;;;13.12;68.74;96461.09;6293500;28;20048;-67
2023/10/06 13:03:44;;;;;;;10.25;7.43;;;;;;;13.12;68.47;96456.63;6293505;28;20059;-67
2023/10/06 13:06:48;;;;;;;10.48;7.28;;;;;;;13.09;68.70;96461.34;6293317;28;20059;-67
2023/10/06 13:09:50;;;;;;;10.23;7.25;;;;;;;13.14;68.32;96461.81;6292638;28;20052;-66
2023/10/06 13:12:53;;;;;;;8.38;7.47;;;;;;;13.09;68.54;96461.34;6293410;28;20036;-66
2023/10/06 13:15:58;;;;;;;;;;;;;;;12.92;68.48;96463.53;6293919;28;20040;-66
2023/10/06 13:18:59;;;;;;;11.88;7.03;;;;;;;12.78;69.73;96463.81;6296086;28;20106;-68
2023/10/06 13:22:03;;;;;;;16.15;7.18;;;;;;;12.78;69.89;96463.81;6297521;28;20044;-67
2023/10/06 13:25:12;;;;;;;10.57;7.05;;;;;;;12.70;70.19;96471.50;6297317;28;20052;-67
2023/10/06 13:28:17;;;;;;;7.68;6.03;;;;;;;12.65;70.42;96473.66;6280256;28;20454;-67
2023/10/06 13:31:20;;;;;;;11.10;7.20;;;;;;;12.62;70.81;96474.75;6297420;28;20051;-67
2023/10/06 13:34:22;;;;;;;8.02;7.22;;;;;;;12.70;70.98;96468.84;6279484;28;20056;-66
2023/10/06 13:37:24;;;;;;;12.02;8.13;;;;;;;12.69;71.40;96480.38;6298042;28;20510;-67
2023/10/06 13:40:25;;;;;;;12.77;7.43;;;;;;;12.69;71.48;96464.56;6297721;28;20131;-67
2023/10/06 13:43:26;;;;;;;11.77;8.13;;;;;;;12.70;71.45;96467.06;6297649;28;20045;-68
2023/10/06 13:46:32;;;;;;;9.10;7.82;;;;;;;12.67;71.76;96471.75;6297195;28;20041;-68
2023/10/06 13:49:40;;;;;;;7.63;6.03;;;;;;;12.65;71.68;96478.94;6280238;28;20044;-71
2023/10/06 13:52:47;;;;;;;11.98;8.07;;;;;;;12.78;71.42;96469.09;6297199;28;20056;-67
2023/10/06 13:55:55;;;;;;;11.60;7.95;;;;;;;12.65;71.64;96469.22;6297354;28;20175;-68
2023/10/06 13:58:59;;;;;;;10.27;7.43;;;;;;;12.67;71.45;96477.03;6296839;28;20059;-67
2023/10/06 14:02:03;;;;;;;11.10;7.55;;;;;;;12.65;71.29;96473.66;6296756;28;20059;-67
2023/10/06 14:05:07;;;;;;;9.68;7.38;;;;;;;12.59;71.41;96470.53;6296069;28;20041;-67
2023/10/06 14:08:17;;;;;;;8.02;6.43;;;;;;;12.58;70.78;96468.88;6296277;28;20040;-67
2023/10/06 14:11:19;;;;;;;8.32;6.15;;;;;;;12.55;70.79;96469.13;6280561;28;20526;-67
2023/10/06 14:17:46;;;;;;;12.02;8.10;;;;;;;12.40;71.10;96465.06;6296943;28;20044;-68
2023/10/06 14:21:02;;;;;;;7.82;6.70;;;;;;;12.29;71.25;96457.16;6296981;28;20510;-68
2023/10/06 14:24:08;;;;;;;9.68;7.30;;;;;;;12.33;70.88;96458.56;6296858;28;20041;-68
2023/10/06 14:27:12;;;;;;;13.40;6.78;;;;;;;12.27;71.64;96464.34;6297103;28;20048;-68
2023/10/06 14:30:21;;;;;;;9.25;6.65;;;;;;;12.14;71.92;96464.44;6296263;28;20135;-67
2023/10/06 14:33:23;;;;;;;7.85;5.90;;;;;;;12.15;72.11;96473.22;6296762;28;20036;-68
2023/10/06 14:36:28;;;;;;;10.65;7.55;;;;;;;12.22;71.99;96464.69;6296562;28;20152;-68
2023/10/06 14:45:57;;;;;;;11.43;7.28;;;;;;;12.07;72.92;96466.72;6296174;28;20049;-67
2023/10/06 14:46:38;;;;;;;10.98;6.82;;;;;;;12.05;73.15;96460.72;6296307;28;20495;-68